Terminal Aerodrome Forecast
Issued by NWS

Home | Current Version | Previous Version | Graphics & Text | Print | Product List | Glossary On
Versions: 1 2 3 4 5 6 7 8 9 10 11 12 13 14 15 16 17 18
000
FTUS43 KFGF 090521
TAFBJI
TAF
KBJI 090521Z 0906/1006 33012KT P6SM -SN OVC015
     FM091300 32009KT P6SM BKN035
     FM091600 30005KT P6SM SCT150
     FM092100 24008KT P6SM BKN090=

USA.gov is the U.S. government's official web portal to all federal, state and local government web resources and services.